sensor_id;sensor_type;location;lat;lon;timestamp;P1;durP1;ratioP1;P2;durP2;ratioP2
78322;SDS011;67583;50.616;-3.404;2023-12-28T00:00:22;23.45;;;4.78;;
78322;SDS011;67583;50.616;-3.404;2023-12-28T00:02:47;19.58;;;4.80;;
78322;SDS011;67583;50.616;-3.404;2023-12-28T00:05:13;15.32;;;3.03;;
78322;SDS011;67583;50.616;-3.404;2023-12-28T00:07:38;8.93;;;2.20;;
78322;SDS011;67583;50.616;-3.404;2023-12-28T00:10:04;19.27;;;3.78;;
78322;SDS011;67583;50.616;-3.404;2023-12-28T00:12:30;17.92;;;3.53;;
78322;SDS011;67583;50.616;-3.404;2023-12-28T00:14:55;22.80;;;5.03;;
78322;SDS011;67583;50.616;-3.404;2023-12-28T00:17:20;16.23;;;3.17;;
78322;SDS011;67583;50.616;-3.404;2023-12-28T00:19:46;19.15;;;3.85;;
78322;SDS011;67583;50.616;-3.404;2023-12-28T00:22:11;27.52;;;5.35;;
78322;SDS011;67583;50.616;-3.404;2023-12-28T00:24:37;17.73;;;4.93;;
78322;SDS011;67583;50.616;-3.404;2023-12-28T00:27:02;34.00;;;5.18;;
78322;SDS011;67583;50.616;-3.404;2023-12-28T00:29:28;37.63;;;6.88;;
78322;SDS011;67583;50.616;-3.404;2023-12-28T00:31:54;29.95;;;6.15;;
78322;SDS011;67583;50.616;-3.404;2023-12-28T00:34:19;27.63;;;5.18;;
78322;SDS011;67583;50.616;-3.404;2023-12-28T00:36:45;34.67;;;7.55;;
78322;SDS011;67583;50.616;-3.404;2023-12-28T00:39:10;47.97;;;9.18;;
78322;SDS011;67583;50.616;-3.404;2023-12-28T00:41:36;39.53;;;8.25;;
78322;SDS011;67583;50.616;-3.404;2023-12-28T00:44:01;39.33;;;6.90;;
78322;SDS011;67583;50.616;-3.404;2023-12-28T00:46:27;46.75;;;8.52;;
78322;SDS011;67583;50.616;-3.404;2023-12-28T00:48:52;30.70;;;6.30;;
78322;SDS011;67583;50.616;-3.404;2023-12-28T00:51:19;42.47;;;9.65;;
78322;SDS011;67583;50.616;-3.404;2023-12-28T00:53:46;25.13;;;6.60;;
78322;SDS011;67583;50.616;-3.404;2023-12-28T00:56:11;47.42;;;8.30;;
78322;SDS011;67583;50.616;-3.404;2023-12-28T00:58:40;32.80;;;6.93;;
78322;SDS011;67583;50.616;-3.404;2023-12-28T01:01:05;40.03;;;8.18;;
78322;SDS011;67583;50.616;-3.404;2023-12-28T01:03:31;33.35;;;6.85;;
78322;SDS011;67583;50.616;-3.404;2023-12-28T01:05:56;26.63;;;4.75;;
78322;SDS011;67583;50.616;-3.404;2023-12-28T01:08:22;39.08;;;7.18;;
78322;SDS011;67583;50.616;-3.404;2023-12-28T01:10:47;22.88;;;6.18;;
78322;SDS011;67583;50.616;-3.404;2023-12-28T01:13:13;25.27;;;6.55;;
78322;SDS011;67583;50.616;-3.404;2023-12-28T01:15:38;24.02;;;6.28;;
78322;SDS011;67583;50.616;-3.404;2023-12-28T01:18:04;29.80;;;6.85;;
78322;SDS011;67583;50.616;-3.404;2023-12-28T01:20:29;34.92;;;6.00;;
78322;SDS011;67583;50.616;-3.404;2023-12-28T01:22:55;23.92;;;6.18;;
78322;SDS011;67583;50.616;-3.404;2023-12-28T01:25:20;31.02;;;7.22;;
78322;SDS011;67583;50.616;-3.404;2023-12-28T01:27:46;31.80;;;6.05;;
78322;SDS011;67583;50.616;-3.404;2023-12-28T01:30:11;34.53;;;6.93;;
78322;SDS011;67583;50.616;-3.404;2023-12-28T01:32:37;29.98;;;5.20;;
78322;SDS011;67583;50.616;-3.404;2023-12-28T01:35:02;32.55;;;7.57;;
78322;SDS011;67583;50.616;-3.404;2023-12-28T01:37:28;33.28;;;7.15;;
78322;SDS011;67583;50.616;-3.404;2023-12-28T01:39:56;40.40;;;8.52;;
78322;SDS011;67583;50.616;-3.404;2023-12-28T01:42:21;35.70;;;8.05;;
78322;SDS011;67583;50.616;-3.404;2023-12-28T01:44:47;27.77;;;5.63;;
78322;SDS011;67583;50.616;-3.404;2023-12-28T01:47:12;36.40;;;6.45;;
78322;SDS011;67583;50.616;-3.404;2023-12-28T01:49:38;23.13;;;6.95;;
78322;SDS011;67583;50.616;-3.404;2023-12-28T01:52:03;26.38;;;6.60;;
78322;SDS011;67583;50.616;-3.404;2023-12-28T01:54:29;32.00;;;7.78;;
78322;SDS011;67583;50.616;-3.404;2023-12-28T01:56:55;31.83;;;6.72;;
78322;SDS011;67583;50.616;-3.404;2023-12-28T01:59:20;32.97;;;7.75;;
78322;SDS011;67583;50.616;-3.404;2023-12-28T02:01:46;24.05;;;6.32;;
78322;SDS011;67583;50.616;-3.404;2023-12-28T02:04:11;36.25;;;6.68;;
78322;SDS011;67583;50.616;-3.404;2023-12-28T02:06:37;37.40;;;7.25;;
78322;SDS011;67583;50.616;-3.404;2023-12-28T02:09:03;29.70;;;6.78;;
78322;SDS011;67583;50.616;-3.404;2023-12-28T02:11:28;35.55;;;8.20;;
78322;SDS011;67583;50.616;-3.404;2023-12-28T02:13:53;30.25;;;6.18;;
78322;SDS011;67583;50.616;-3.404;2023-12-28T02:16:21;29.92;;;6.55;;
78322;SDS011;67583;50.616;-3.404;2023-12-28T02:18:51;35.30;;;7.05;;
78322;SDS011;67583;50.616;-3.404;2023-12-28T02:21:17;31.67;;;7.00;;
78322;SDS011;67583;50.616;-3.404;2023-12-28T02:23:47;34.63;;;8.23;;
78322;SDS011;67583;50.616;-3.404;2023-12-28T02:26:13;30.20;;;5.75;;
78322;SDS011;67583;50.616;-3.404;2023-12-28T02:28:38;33.65;;;6.95;;
78322;SDS011;67583;50.616;-3.404;2023-12-28T02:31:04;36.03;;;6.85;;
78322;SDS011;67583;50.616;-3.404;2023-12-28T02:33:36;29.48;;;5.97;;
78322;SDS011;67583;50.616;-3.404;2023-12-28T02:36:06;27.92;;;5.35;;
78322;SDS011;67583;50.616;-3.404;2023-12-28T02:38:35;35.88;;;7.03;;
78322;SDS011;67583;50.616;-3.404;2023-12-28T02:41:01;33.83;;;6.22;;
78322;SDS011;67583;50.616;-3.404;2023-12-28T02:43:28;28.92;;;6.20;;
78322;SDS011;67583;50.616;-3.404;2023-12-28T02:45:53;33.47;;;7.68;;
78322;SDS011;67583;50.616;-3.404;2023-12-28T02:48:19;25.60;;;5.55;;
78322;SDS011;67583;50.616;-3.404;2023-12-28T02:50:44;22.10;;;5.53;;
78322;SDS011;67583;50.616;-3.404;2023-12-28T02:53:10;26.98;;;4.85;;
78322;SDS011;67583;50.616;-3.404;2023-12-28T02:55:35;27.20;;;5.30;;
78322;SDS011;67583;50.616;-3.404;2023-12-28T02:58:00;22.00;;;4.75;;
78322;SDS011;67583;50.616;-3.404;2023-12-28T03:00:26;27.92;;;5.82;;
78322;SDS011;67583;50.616;-3.404;2023-12-28T03:02:52;25.65;;;4.95;;
78322;SDS011;67583;50.616;-3.404;2023-12-28T03:05:17;27.05;;;4.68;;
78322;SDS011;67583;50.616;-3.404;2023-12-28T03:07:43;26.35;;;5.55;;
78322;SDS011;67583;50.616;-3.404;2023-12-28T03:10:09;25.35;;;5.25;;
78322;SDS011;67583;50.616;-3.404;2023-12-28T03:12:36;24.10;;;4.25;;
78322;SDS011;67583;50.616;-3.404;2023-12-28T03:15:01;26.65;;;5.28;;
78322;SDS011;67583;50.616;-3.404;2023-12-28T03:17:27;25.38;;;5.43;;
78322;SDS011;67583;50.616;-3.404;2023-12-28T03:19:54;20.10;;;3.92;;
78322;SDS011;67583;50.616;-3.404;2023-12-28T03:22:19;12.02;;;3.13;;
78322;SDS011;67583;50.616;-3.404;2023-12-28T03:24:46;17.30;;;2.72;;
78322;SDS011;67583;50.616;-3.404;2023-12-28T03:27:11;17.95;;;3.50;;
78322;SDS011;67583;50.616;-3.404;2023-12-28T03:29:37;24.50;;;4.93;;
78322;SDS011;67583;50.616;-3.404;2023-12-28T03:32:02;22.20;;;4.75;;
78322;SDS011;67583;50.616;-3.404;2023-12-28T03:34:27;29.15;;;5.10;;
78322;SDS011;67583;50.616;-3.404;2023-12-28T03:36:55;36.55;;;6.82;;
78322;SDS011;67583;50.616;-3.404;2023-12-28T03:39:20;29.35;;;6.05;;
78322;SDS011;67583;50.616;-3.404;2023-12-28T03:41:47;28.85;;;6.47;;
78322;SDS011;67583;50.616;-3.404;2023-12-28T03:44:12;39.03;;;7.78;;
78322;SDS011;67583;50.616;-3.404;2023-12-28T03:46:38;36.40;;;7.25;;
78322;SDS011;67583;50.616;-3.404;2023-12-28T03:49:03;36.00;;;6.32;;
78322;SDS011;67583;50.616;-3.404;2023-12-28T03:51:28;32.40;;;6.00;;
78322;SDS011;67583;50.616;-3.404;2023-12-28T03:53:54;38.40;;;7.60;;
78322;SDS011;67583;50.616;-3.404;2023-12-28T03:56:23;36.70;;;7.20;;
78322;SDS011;67583;50.616;-3.404;2023-12-28T03:58:50;36.28;;;6.70;;
78322;SDS011;67583;50.616;-3.404;2023-12-28T04:01:16;26.27;;;8.07;;
78322;SDS011;67583;50.616;-3.404;2023-12-28T04:03:42;32.25;;;6.22;;
78322;SDS011;67583;50.616;-3.404;2023-12-28T04:06:08;46.50;;;6.00;;
78322;SDS011;67583;50.616;-3.404;2023-12-28T04:08:33;28.35;;;7.45;;
78322;SDS011;67583;50.616;-3.404;2023-12-28T04:10:59;39.13;;;6.97;;
78322;SDS011;67583;50.616;-3.404;2023-12-28T04:13:24;39.10;;;7.55;;
78322;SDS011;67583;50.616;-3.404;2023-12-28T04:15:49;27.13;;;5.18;;
78322;SDS011;67583;50.616;-3.404;2023-12-28T04:18:15;39.30;;;7.28;;
78322;SDS011;67583;50.616;-3.404;2023-12-28T04:20:42;32.38;;;6.38;;
78322;SDS011;67583;50.616;-3.404;2023-12-28T04:23:07;27.50;;;6.70;;
78322;SDS011;67583;50.616;-3.404;2023-12-28T04:25:33;44.80;;;9.27;;
78322;SDS011;67583;50.616;-3.404;2023-12-28T04:27:58;39.83;;;8.27;;
78322;SDS011;67583;50.616;-3.404;2023-12-28T04:30:24;34.95;;;9.05;;
78322;SDS011;67583;50.616;-3.404;2023-12-28T04:32:49;37.22;;;7.32;;
78322;SDS011;67583;50.616;-3.404;2023-12-28T04:35:14;32.35;;;6.95;;
78322;SDS011;67583;50.616;-3.404;2023-12-28T04:37:40;28.85;;;7.75;;
78322;SDS011;67583;50.616;-3.404;2023-12-28T04:40:05;35.28;;;6.43;;
78322;SDS011;67583;50.616;-3.404;2023-12-28T04:42:31;37.58;;;7.47;;
78322;SDS011;67583;50.616;-3.404;2023-12-28T04:44:56;34.63;;;6.90;;
78322;SDS011;67583;50.616;-3.404;2023-12-28T04:47:22;41.63;;;9.82;;
78322;SDS011;67583;50.616;-3.404;2023-12-28T04:49:47;39.30;;;7.03;;
78322;SDS011;67583;50.616;-3.404;2023-12-28T04:52:13;37.25;;;7.68;;
78322;SDS011;67583;50.616;-3.404;2023-12-28T04:54:41;43.88;;;6.18;;
78322;SDS011;67583;50.616;-3.404;2023-12-28T04:57:06;44.17;;;6.90;;
78322;SDS011;67583;50.616;-3.404;2023-12-28T04:59:41;40.20;;;7.30;;
78322;SDS011;67583;50.616;-3.404;2023-12-28T05:02:06;37.90;;;8.50;;
78322;SDS011;67583;50.616;-3.404;2023-12-28T05:04:32;47.20;;;10.10;;
78322;SDS011;67583;50.616;-3.404;2023-12-28T05:06:58;34.03;;;6.60;;
78322;SDS011;67583;50.616;-3.404;2023-12-28T05:09:23;42.58;;;6.55;;
78322;SDS011;67583;50.616;-3.404;2023-12-28T05:11:48;49.60;;;8.27;;
78322;SDS011;67583;50.616;-3.404;2023-12-28T05:14:14;35.58;;;7.32;;
78322;SDS011;67583;50.616;-3.404;2023-12-28T05:16:39;38.17;;;6.50;;
78322;SDS011;67583;50.616;-3.404;2023-12-28T05:19:05;33.17;;;7.40;;
78322;SDS011;67583;50.616;-3.404;2023-12-28T05:21:30;38.55;;;7.70;;
78322;SDS011;67583;50.616;-3.404;2023-12-28T05:23:55;29.13;;;7.22;;
78322;SDS011;67583;50.616;-3.404;2023-12-28T05:26:21;34.85;;;8.23;;
78322;SDS011;67583;50.616;-3.404;2023-12-28T05:28:47;25.33;;;6.65;;
78322;SDS011;67583;50.616;-3.404;2023-12-28T05:31:13;38.05;;;8.35;;
78322;SDS011;67583;50.616;-3.404;2023-12-28T05:33:38;35.35;;;7.70;;
78322;SDS011;67583;50.616;-3.404;2023-12-28T05:36:04;48.38;;;9.10;;
78322;SDS011;67583;50.616;-3.404;2023-12-28T05:38:30;36.20;;;6.90;;
78322;SDS011;67583;50.616;-3.404;2023-12-28T05:40:56;44.85;;;7.30;;
78322;SDS011;67583;50.616;-3.404;2023-12-28T05:43:21;32.35;;;7.38;;
78322;SDS011;67583;50.616;-3.404;2023-12-28T05:45:46;36.22;;;7.15;;
78322;SDS011;67583;50.616;-3.404;2023-12-28T05:48:12;41.28;;;8.52;;
78322;SDS011;67583;50.616;-3.404;2023-12-28T05:50:37;34.60;;;7.43;;
78322;SDS011;67583;50.616;-3.404;2023-12-28T05:53:03;38.63;;;7.45;;
78322;SDS011;67583;50.616;-3.404;2023-12-28T05:55:28;31.75;;;6.50;;
78322;SDS011;67583;50.616;-3.404;2023-12-28T05:57:53;34.30;;;6.93;;
78322;SDS011;67583;50.616;-3.404;2023-12-28T06:00:19;34.25;;;7.53;;
78322;SDS011;67583;50.616;-3.404;2023-12-28T06:02:44;37.35;;;6.72;;
78322;SDS011;67583;50.616;-3.404;2023-12-28T06:05:11;29.95;;;6.53;;
78322;SDS011;67583;50.616;-3.404;2023-12-28T06:07:37;42.17;;;6.95;;
78322;SDS011;67583;50.616;-3.404;2023-12-28T06:10:03;34.90;;;7.63;;
78322;SDS011;67583;50.616;-3.404;2023-12-28T06:12:29;31.88;;;6.50;;
78322;SDS011;67583;50.616;-3.404;2023-12-28T06:14:54;33.95;;;6.35;;
78322;SDS011;67583;50.616;-3.404;2023-12-28T06:17:20;35.53;;;7.22;;
78322;SDS011;67583;50.616;-3.404;2023-12-28T06:19:45;39.20;;;7.45;;
78322;SDS011;67583;50.616;-3.404;2023-12-28T06:22:11;39.78;;;7.50;;
78322;SDS011;67583;50.616;-3.404;2023-12-28T06:24:39;35.28;;;6.32;;
78322;SDS011;67583;50.616;-3.404;2023-12-28T06:27:05;25.35;;;7.25;;
78322;SDS011;67583;50.616;-3.404;2023-12-28T06:29:31;40.33;;;6.45;;
78322;SDS011;67583;50.616;-3.404;2023-12-28T06:31:56;32.67;;;7.07;;
78322;SDS011;67583;50.616;-3.404;2023-12-28T06:34:21;31.08;;;5.97;;
78322;SDS011;67583;50.616;-3.404;2023-12-28T06:36:47;33.22;;;8.07;;
78322;SDS011;67583;50.616;-3.404;2023-12-28T06:39:12;25.52;;;5.50;;
78322;SDS011;67583;50.616;-3.404;2023-12-28T06:41:38;21.38;;;4.97;;
78322;SDS011;67583;50.616;-3.404;2023-12-28T06:44:03;31.05;;;6.03;;
78322;SDS011;67583;50.616;-3.404;2023-12-28T06:46:29;25.15;;;6.75;;
78322;SDS011;67583;50.616;-3.404;2023-12-28T06:48:54;32.22;;;6.20;;
78322;SDS011;67583;50.616;-3.404;2023-12-28T06:51:20;27.10;;;6.47;;
78322;SDS011;67583;50.616;-3.404;2023-12-28T06:53:46;35.00;;;5.80;;
78322;SDS011;67583;50.616;-3.404;2023-12-28T06:56:12;35.03;;;6.03;;
78322;SDS011;67583;50.616;-3.404;2023-12-28T06:58:37;31.17;;;6.15;;
78322;SDS011;67583;50.616;-3.404;2023-12-28T07:01:06;30.02;;;6.15;;
78322;SDS011;67583;50.616;-3.404;2023-12-28T07:03:32;33.88;;;6.82;;
78322;SDS011;67583;50.616;-3.404;2023-12-28T07:05:58;33.10;;;5.47;;
78322;SDS011;67583;50.616;-3.404;2023-12-28T07:08:24;27.17;;;5.60;;
78322;SDS011;67583;50.616;-3.404;2023-12-28T07:10:49;32.22;;;7.97;;
78322;SDS011;67583;50.616;-3.404;2023-12-28T07:13:15;32.72;;;7.95;;
78322;SDS011;67583;50.616;-3.404;2023-12-28T07:15:40;35.38;;;8.13;;
78322;SDS011;67583;50.616;-3.404;2023-12-28T07:18:05;37.63;;;7.75;;
78322;SDS011;67583;50.616;-3.404;2023-12-28T07:20:31;32.20;;;6.05;;
78322;SDS011;67583;50.616;-3.404;2023-12-28T07:22:56;26.05;;;6.15;;
78322;SDS011;67583;50.616;-3.404;2023-12-28T07:25:22;29.45;;;5.95;;
78322;SDS011;67583;50.616;-3.404;2023-12-28T07:27:47;36.17;;;6.70;;
78322;SDS011;67583;50.616;-3.404;2023-12-28T07:30:13;33.03;;;6.80;;
78322;SDS011;67583;50.616;-3.404;2023-12-28T07:32:39;31.35;;;6.70;;
78322;SDS011;67583;50.616;-3.404;2023-12-28T07:35:04;33.33;;;6.40;;
78322;SDS011;67583;50.616;-3.404;2023-12-28T07:37:30;25.08;;;5.18;;
78322;SDS011;67583;50.616;-3.404;2023-12-28T07:39:55;30.73;;;5.63;;
78322;SDS011;67583;50.616;-3.404;2023-12-28T07:42:20;32.53;;;7.20;;
78322;SDS011;67583;50.616;-3.404;2023-12-28T07:44:46;34.63;;;6.93;;
78322;SDS011;67583;50.616;-3.404;2023-12-28T07:47:11;37.67;;;8.85;;
78322;SDS011;67583;50.616;-3.404;2023-12-28T07:49:37;31.48;;;5.95;;
78322;SDS011;67583;50.616;-3.404;2023-12-28T07:52:03;25.48;;;4.97;;
78322;SDS011;67583;50.616;-3.404;2023-12-28T07:54:28;32.13;;;6.25;;
78322;SDS011;67583;50.616;-3.404;2023-12-28T07:56:54;27.55;;;6.18;;
78322;SDS011;67583;50.616;-3.404;2023-12-28T07:59:19;35.08;;;8.43;;
78322;SDS011;67583;50.616;-3.404;2023-12-28T08:01:44;36.38;;;5.63;;
78322;SDS011;67583;50.616;-3.404;2023-12-28T08:04:10;32.53;;;7.57;;
78322;SDS011;67583;50.616;-3.404;2023-12-28T08:06:36;36.53;;;6.80;;
78322;SDS011;67583;50.616;-3.404;2023-12-28T08:09:01;31.92;;;6.93;;
78322;SDS011;67583;50.616;-3.404;2023-12-28T08:11:30;32.10;;;5.43;;
78322;SDS011;67583;50.616;-3.404;2023-12-28T08:13:55;35.85;;;6.25;;
78322;SDS011;67583;50.616;-3.404;2023-12-28T08:16:21;26.02;;;5.97;;
78322;SDS011;67583;50.616;-3.404;2023-12-28T08:18:46;32.22;;;4.97;;
78322;SDS011;67583;50.616;-3.404;2023-12-28T08:21:12;28.27;;;5.20;;
78322;SDS011;67583;50.616;-3.404;2023-12-28T08:23:37;23.30;;;4.32;;
78322;SDS011;67583;50.616;-3.404;2023-12-28T08:26:03;22.77;;;6.88;;
78322;SDS011;67583;50.616;-3.404;2023-12-28T08:28:29;29.35;;;5.53;;
78322;SDS011;67583;50.616;-3.404;2023-12-28T08:30:56;27.75;;;4.97;;
78322;SDS011;67583;50.616;-3.404;2023-12-28T08:33:21;20.20;;;4.18;;
78322;SDS011;67583;50.616;-3.404;2023-12-28T08:35:47;29.20;;;4.57;;
78322;SDS011;67583;50.616;-3.404;2023-12-28T08:38:12;26.92;;;4.88;;
78322;SDS011;67583;50.616;-3.404;2023-12-28T08:40:38;25.05;;;6.18;;
78322;SDS011;67583;50.616;-3.404;2023-12-28T08:43:03;34.10;;;8.55;;
78322;SDS011;67583;50.616;-3.404;2023-12-28T08:45:29;29.38;;;5.82;;
78322;SDS011;67583;50.616;-3.404;2023-12-28T08:47:55;26.83;;;5.72;;
78322;SDS011;67583;50.616;-3.404;2023-12-28T08:50:21;32.78;;;7.50;;
78322;SDS011;67583;50.616;-3.404;2023-12-28T08:52:46;30.80;;;7.05;;
78322;SDS011;67583;50.616;-3.404;2023-12-28T08:55:12;32.20;;;6.68;;
78322;SDS011;67583;50.616;-3.404;2023-12-28T08:57:37;29.55;;;5.53;;
78322;SDS011;67583;50.616;-3.404;2023-12-28T09:00:04;27.85;;;7.47;;
78322;SDS011;67583;50.616;-3.404;2023-12-28T09:02:30;35.60;;;7.72;;
78322;SDS011;67583;50.616;-3.404;2023-12-28T09:04:57;46.35;;;6.90;;
78322;SDS011;67583;50.616;-3.404;2023-12-28T09:07:23;35.03;;;7.20;;
78322;SDS011;67583;50.616;-3.404;2023-12-28T09:09:49;40.15;;;5.80;;
78322;SDS011;67583;50.616;-3.404;2023-12-28T09:12:14;40.60;;;6.35;;
78322;SDS011;67583;50.616;-3.404;2023-12-28T09:14:40;35.13;;;5.75;;
78322;SDS011;67583;50.616;-3.404;2023-12-28T09:17:05;29.83;;;7.18;;
78322;SDS011;67583;50.616;-3.404;2023-12-28T09:19:30;33.67;;;6.43;;
78322;SDS011;67583;50.616;-3.404;2023-12-28T09:21:56;34.03;;;8.63;;
78322;SDS011;67583;50.616;-3.404;2023-12-28T09:24:21;48.25;;;6.82;;
78322;SDS011;67583;50.616;-3.404;2023-12-28T09:26:47;25.60;;;3.85;;
78322;SDS011;67583;50.616;-3.404;2023-12-28T09:29:12;17.83;;;3.50;;
78322;SDS011;67583;50.616;-3.404;2023-12-28T09:31:38;11.85;;;2.78;;
78322;SDS011;67583;50.616;-3.404;2023-12-28T09:34:04;23.00;;;4.00;;
78322;SDS011;67583;50.616;-3.404;2023-12-28T09:36:30;17.42;;;2.83;;
78322;SDS011;67583;50.616;-3.404;2023-12-28T09:38:55;16.85;;;2.88;;
78322;SDS011;67583;50.616;-3.404;2023-12-28T09:41:21;13.30;;;3.20;;
78322;SDS011;67583;50.616;-3.404;2023-12-28T09:43:54;25.25;;;4.05;;
78322;SDS011;67583;50.616;-3.404;2023-12-28T09:46:30;19.48;;;3.67;;
78322;SDS011;67583;50.616;-3.404;2023-12-28T09:48:56;19.38;;;5.82;;
78322;SDS011;67583;50.616;-3.404;2023-12-28T09:51:23;34.08;;;6.53;;
78322;SDS011;67583;50.616;-3.404;2023-12-28T09:53:48;26.23;;;5.88;;
78322;SDS011;67583;50.616;-3.404;2023-12-28T09:56:13;25.73;;;4.65;;
78322;SDS011;67583;50.616;-3.404;2023-12-28T09:58:39;27.80;;;5.60;;
78322;SDS011;67583;50.616;-3.404;2023-12-28T10:01:05;44.88;;;8.25;;
78322;SDS011;67583;50.616;-3.404;2023-12-28T10:03:31;32.00;;;5.90;;
78322;SDS011;67583;50.616;-3.404;2023-12-28T10:05:56;23.17;;;5.35;;
78322;SDS011;67583;50.616;-3.404;2023-12-28T10:08:22;32.00;;;5.57;;
78322;SDS011;67583;50.616;-3.404;2023-12-28T10:10:47;25.98;;;6.97;;
78322;SDS011;67583;50.616;-3.404;2023-12-28T10:13:16;25.13;;;5.90;;
78322;SDS011;67583;50.616;-3.404;2023-12-28T10:15:42;30.42;;;5.55;;
78322;SDS011;67583;50.616;-3.404;2023-12-28T10:18:08;23.15;;;3.83;;
78322;SDS011;67583;50.616;-3.404;2023-12-28T10:20:33;21.17;;;4.68;;
78322;SDS011;67583;50.616;-3.404;2023-12-28T10:22:59;25.67;;;4.65;;
78322;SDS011;67583;50.616;-3.404;2023-12-28T10:25:25;18.00;;;3.97;;
78322;SDS011;67583;50.616;-3.404;2023-12-28T10:27:50;25.83;;;5.35;;
78322;SDS011;67583;50.616;-3.404;2023-12-28T10:30:22;17.05;;;4.15;;
78322;SDS011;67583;50.616;-3.404;2023-12-28T10:32:47;33.88;;;6.03;;
78322;SDS011;67583;50.616;-3.404;2023-12-28T10:35:13;14.30;;;3.78;;
78322;SDS011;67583;50.616;-3.404;2023-12-28T10:37:42;31.52;;;6.30;;
78322;SDS011;67583;50.616;-3.404;2023-12-28T10:40:11;35.28;;;6.88;;
78322;SDS011;67583;50.616;-3.404;2023-12-28T10:42:46;30.83;;;5.00;;
78322;SDS011;67583;50.616;-3.404;2023-12-28T10:45:16;38.33;;;4.53;;
78322;SDS011;67583;50.616;-3.404;2023-12-28T10:47:47;38.13;;;6.43;;
78322;SDS011;67583;50.616;-3.404;2023-12-28T10:50:25;27.27;;;5.32;;
78322;SDS011;67583;50.616;-3.404;2023-12-28T10:52:53;20.63;;;4.30;;
78322;SDS011;67583;50.616;-3.404;2023-12-28T10:55:38;15.05;;;4.15;;
78322;SDS011;67583;50.616;-3.404;2023-12-28T10:58:29;33.05;;;5.38;;
78322;SDS011;67583;50.616;-3.404;2023-12-28T11:01:02;20.25;;;5.10;;
78322;SDS011;67583;50.616;-3.404;2023-12-28T11:03:31;26.65;;;6.70;;
78322;SDS011;67583;50.616;-3.404;2023-12-28T11:06:00;32.40;;;5.10;;
78322;SDS011;67583;50.616;-3.404;2023-12-28T11:08:27;15.57;;;4.10;;
78322;SDS011;67583;50.616;-3.404;2023-12-28T11:10:54;23.45;;;4.25;;
78322;SDS011;67583;50.616;-3.404;2023-12-28T11:13:20;20.83;;;4.60;;
78322;SDS011;67583;50.616;-3.404;2023-12-28T11:15:47;22.88;;;5.15;;
78322;SDS011;67583;50.616;-3.404;2023-12-28T11:18:13;34.38;;;5.20;;
78322;SDS011;67583;50.616;-3.404;2023-12-28T11:20:40;23.15;;;4.47;;
78322;SDS011;67583;50.616;-3.404;2023-12-28T11:23:07;24.02;;;6.00;;
78322;SDS011;67583;50.616;-3.404;2023-12-28T11:25:32;23.60;;;4.68;;
78322;SDS011;67583;50.616;-3.404;2023-12-28T11:27:58;22.95;;;5.88;;
78322;SDS011;67583;50.616;-3.404;2023-12-28T11:30:27;23.27;;;4.72;;
78322;SDS011;67583;50.616;-3.404;2023-12-28T11:32:55;22.05;;;4.50;;
78322;SDS011;67583;50.616;-3.404;2023-12-28T11:35:21;38.53;;;4.22;;
78322;SDS011;67583;50.616;-3.404;2023-12-28T11:37:48;18.88;;;4.75;;
78322;SDS011;67583;50.616;-3.404;2023-12-28T11:40:17;20.67;;;4.70;;
78322;SDS011;67583;50.616;-3.404;2023-12-28T11:42:47;20.23;;;3.50;;
78322;SDS011;67583;50.616;-3.404;2023-12-28T11:45:15;25.83;;;3.97;;
78322;SDS011;67583;50.616;-3.404;2023-12-28T11:47:41;16.88;;;5.40;;
78322;SDS011;67583;50.616;-3.404;2023-12-28T11:50:07;28.48;;;4.63;;
78322;SDS011;67583;50.616;-3.404;2023-12-28T11:52:33;14.90;;;4.10;;
78322;SDS011;67583;50.616;-3.404;2023-12-28T11:54:59;26.33;;;4.93;;
78322;SDS011;67583;50.616;-3.404;2023-12-28T11:57:25;16.58;;;4.18;;
78322;SDS011;67583;50.616;-3.404;2023-12-28T11:59:58;17.60;;;3.33;;
78322;SDS011;67583;50.616;-3.404;2023-12-28T12:02:24;20.85;;;4.60;;
78322;SDS011;67583;50.616;-3.404;2023-12-28T12:04:50;23.55;;;4.15;;
78322;SDS011;67583;50.616;-3.404;2023-12-28T12:07:15;20.23;;;4.10;;
78322;SDS011;67583;50.616;-3.404;2023-12-28T12:09:41;32.58;;;5.13;;
78322;SDS011;67583;50.616;-3.404;2023-12-28T12:12:07;17.35;;;4.38;;
78322;SDS011;67583;50.616;-3.404;2023-12-28T12:14:33;23.67;;;5.13;;
78322;SDS011;67583;50.616;-3.404;2023-12-28T12:16:59;24.67;;;4.47;;
78322;SDS011;67583;50.616;-3.404;2023-12-28T12:19:25;22.20;;;5.00;;
78322;SDS011;67583;50.616;-3.404;2023-12-28T12:21:57;18.60;;;4.57;;
78322;SDS011;67583;50.616;-3.404;2023-12-28T12:24:23;17.23;;;3.95;;
78322;SDS011;67583;50.616;-3.404;2023-12-28T12:26:49;25.77;;;6.72;;
78322;SDS011;67583;50.616;-3.404;2023-12-28T12:29:16;35.60;;;5.05;;
78322;SDS011;67583;50.616;-3.404;2023-12-28T12:31:41;23.30;;;4.65;;
78322;SDS011;67583;50.616;-3.404;2023-12-28T12:34:11;18.25;;;4.03;;
78322;SDS011;67583;50.616;-3.404;2023-12-28T12:36:39;24.52;;;4.40;;
78322;SDS011;67583;50.616;-3.404;2023-12-28T12:39:04;25.23;;;4.57;;
78322;SDS011;67583;50.616;-3.404;2023-12-28T12:41:31;17.70;;;4.00;;
78322;SDS011;67583;50.616;-3.404;2023-12-28T12:43:58;27.48;;;4.85;;
78322;SDS011;67583;50.616;-3.404;2023-12-28T12:46:24;22.67;;;4.75;;
78322;SDS011;67583;50.616;-3.404;2023-12-28T12:48:59;26.48;;;5.00;;
78322;SDS011;67583;50.616;-3.404;2023-12-28T12:51:27;28.08;;;5.45;;
78322;SDS011;67583;50.616;-3.404;2023-12-28T12:53:59;19.25;;;4.00;;
78322;SDS011;67583;50.616;-3.404;2023-12-28T12:56:26;27.15;;;4.13;;
78322;SDS011;67583;50.616;-3.404;2023-12-28T12:58:52;24.85;;;4.65;;
78322;SDS011;67583;50.616;-3.404;2023-12-28T13:01:18;16.38;;;3.40;;
78322;SDS011;67583;50.616;-3.404;2023-12-28T13:03:45;18.48;;;4.78;;
78322;SDS011;67583;50.616;-3.404;2023-12-28T13:06:11;26.15;;;4.75;;
78322;SDS011;67583;50.616;-3.404;2023-12-28T13:08:36;13.20;;;3.45;;
78322;SDS011;67583;50.616;-3.404;2023-12-28T13:11:01;22.67;;;4.13;;
78322;SDS011;67583;50.616;-3.404;2023-12-28T13:13:27;19.17;;;4.63;;
78322;SDS011;67583;50.616;-3.404;2023-12-28T13:15:52;20.17;;;5.32;;
78322;SDS011;67583;50.616;-3.404;2023-12-28T13:18:18;16.33;;;3.30;;
78322;SDS011;67583;50.616;-3.404;2023-12-28T13:20:43;20.38;;;4.00;;
78322;SDS011;67583;50.616;-3.404;2023-12-28T13:23:10;21.92;;;4.75;;
78322;SDS011;67583;50.616;-3.404;2023-12-28T13:25:35;21.02;;;4.90;;
78322;SDS011;67583;50.616;-3.404;2023-12-28T13:28:01;20.58;;;4.03;;
78322;SDS011;67583;50.616;-3.404;2023-12-28T13:30:26;22.13;;;4.28;;
78322;SDS011;67583;50.616;-3.404;2023-12-28T13:32:53;26.35;;;4.13;;
78322;SDS011;67583;50.616;-3.404;2023-12-28T13:35:21;18.83;;;4.50;;
78322;SDS011;67583;50.616;-3.404;2023-12-28T13:37:47;23.48;;;4.45;;
78322;SDS011;67583;50.616;-3.404;2023-12-28T13:40:12;18.70;;;4.43;;
78322;SDS011;67583;50.616;-3.404;2023-12-28T13:42:38;21.35;;;4.30;;
78322;SDS011;67583;50.616;-3.404;2023-12-28T13:45:03;24.58;;;5.07;;
78322;SDS011;67583;50.616;-3.404;2023-12-28T13:47:29;19.70;;;4.97;;
78322;SDS011;67583;50.616;-3.404;2023-12-28T13:49:55;32.33;;;6.28;;
78322;SDS011;67583;50.616;-3.404;2023-12-28T13:52:21;20.15;;;4.60;;
78322;SDS011;67583;50.616;-3.404;2023-12-28T13:54:47;23.00;;;5.80;;
78322;SDS011;67583;50.616;-3.404;2023-12-28T13:57:12;24.63;;;6.22;;
78322;SDS011;67583;50.616;-3.404;2023-12-28T13:59:37;24.50;;;4.65;;
78322;SDS011;67583;50.616;-3.404;2023-12-28T14:02:03;27.98;;;4.97;;
78322;SDS011;67583;50.616;-3.404;2023-12-28T14:04:28;22.25;;;4.93;;
78322;SDS011;67583;50.616;-3.404;2023-12-28T14:06:54;31.25;;;6.10;;
78322;SDS011;67583;50.616;-3.404;2023-12-28T14:09:19;17.33;;;4.15;;
78322;SDS011;67583;50.616;-3.404;2023-12-28T14:11:46;23.50;;;4.45;;
78322;SDS011;67583;50.616;-3.404;2023-12-28T14:14:12;21.85;;;5.50;;